KCOU/COU METAR and TAF weather

Enter ICAO airport designator
Station Type Date Time Source
KCOU METAR 2019/02/20 23:54 UTC NOAA

KCOU 202354Z 23014KT 10SM BKN027 02/M03 A2990 RMK AO2 SLP131 T00171028 10028 20017 52024


Station Type Date Time Source
KCOU Decoded METAR 2019/02/20 23:54 UTC NOAA

COLUMBIA REGIONAL AIRPORT, MO, United States (KCOU) 38-49N 092-13W 271M
Feb 20, 2019 - 06:54 PM EST / 2019.02.20 2354 UTC
Wind: from the SW (230 degrees) at 16 MPH (14 KT):0
Visibility: 10 mile(s):0
Sky conditions: mostly cloudy
Temperature: 35.1 F (1.7 C)
Dew Point: 27.0 F (-2.8 C)
Relative Humidity: 71%
Pressure (altimeter): 29.9 in. Hg (1012 hPa)
Pressure tendency: 0.07 inches (2.4 hPa) higher than three hours ago
ob: KCOU 202354Z 23014KT 10SM BKN027 02/M03 A2990 RMK AO2 SLP131 T00171028 10028 20017 52024
cycle: 0

Station Type Date Time Source
KCOU TAF 2019/02/20 22:30 UTC NOAA

TAF
AMD KCOU 202226Z 2022/2118 25012KT P6SM BKN025
FM210100 23006KT P6SM BKN250
TEMPO 2110/2113 5SM BR
FM211400 VRB03KT P6SM BKN150


Example: see airport list